Saturday, November 18, 2017, 7:00 AM EST
Back to Local

KMTN, Baltimore / Martin

Location: Middle River, MD, United States Lat: 39.333
Local Time: 7:00 AM EST (12:00 GMT) Lon: -76.417
Time Zone: US/Eastern Elev: 22 ft

Show me the last for .
Show Decoded

2017-11-18 05:45 METAR KMTN 181045Z 00000KT 10SM SKC 01/01 A2999 RMK FIRST =
2017-11-18 05:36 METAR KMTN 181036Z AUTO 00000KT 10SM CLR 00/00 A2999 RMK AO2 =
2017-11-18 05:30 METAR KMTN 181030Z AUTO 00000KT 10SM CLR 00/00 A3000 RMK AO2 =
2017-11-18 05:09 METAR KMTN 181009Z AUTO 00000KT 10SM CLR 00/00 A3002 RMK AO2 =
2017-11-18 04:48 METAR KMTN 180948Z AUTO 00000KT 10SM CLR 00/00 A3001 RMK AO2 =
2017-11-18 04:30 METAR KMTN 180930Z AUTO 00000KT 10SM CLR 00/00 A3001 RMK AO2 =
2017-11-18 04:09 METAR KMTN 180909Z AUTO 00000KT 10SM CLR 00/00 A3002 RMK AO2 =
2017-11-18 03:48 METAR KMTN 180848Z AUTO 00000KT 10SM CLR 00/00 A3003 RMK AO2 =
2017-11-18 03:30 METAR KMTN 180830Z AUTO 00000KT 10SM CLR 00/00 A3004 RMK AO2 =
2017-11-18 03:09 METAR KMTN 180809Z AUTO 00000KT 10SM CLR 01/00 A3004 RMK AO2 =
2017-11-18 02:48 METAR KMTN 180748Z AUTO 00000KT 10SM CLR 01/01 A3004 RMK AO2 =
2017-11-18 02:30 METAR KMTN 180730Z AUTO 00000KT 10SM CLR 01/00 A3005 RMK AO2 =
2017-11-18 02:09 METAR KMTN 180709Z AUTO 00000KT 10SM CLR 01/00 A3006 RMK AO2 =
2017-11-18 01:48 METAR KMTN 180648Z AUTO 00000KT 10SM CLR 01/00 A3007 RMK AO2 =
2017-11-18 01:30 METAR KMTN 180630Z AUTO 00000KT 10SM CLR 01/00 A3007 RMK AO2 =
2017-11-18 01:09 METAR KMTN 180609Z AUTO 00000KT 10SM CLR 01/00 A3008 RMK AO2 =
2017-11-18 00:48 METAR KMTN 180548Z AUTO 00000KT 10SM CLR 01/00 A3010 RMK AO2 =
2017-11-18 00:30 METAR KMTN 180530Z AUTO 00000KT 10SM CLR 01/00 A3010 RMK AO2 =
2017-11-18 00:09 METAR KMTN 180509Z AUTO 00000KT 10SM CLR 01/00 A3011 RMK AO2 =
2017-11-17 23:48 METAR KMTN 180448Z AUTO 29003KT 10SM CLR 01/00 A3012 RMK AO2 =
2017-11-17 23:30 METAR KMTN 180430Z AUTO 00000KT 10SM CLR 01/00 A3012 RMK AO2 =
2017-11-17 23:09 METAR KMTN 180409Z AUTO 00000KT 10SM CLR 02/00 A3012 RMK AO2 =
2017-11-17 22:48 METAR KMTN 180348Z AUTO 00000KT 10SM CLR 02/00 A3012 RMK AO2 =
2017-11-17 22:30 METAR KMTN 180330Z AUTO 00000KT 10SM CLR 02/00 A3012 RMK AO2 =
2017-11-17 22:09 METAR KMTN 180309Z AUTO 00000KT 10SM CLR 02/00 A3012 RMK AO2 =
2017-11-17 21:45 METAR KMTN 180245Z 00000KT 10SM SKC 02/00 A3013 =
2017-11-17 20:45 METAR KMTN 180145Z 00000KT 10SM SKC 03/01 A3014 =
2017-11-17 19:45 METAR KMTN 180045Z 00000KT 10SM SKC 04/01 A3015 =
2017-11-17 18:45 METAR KMTN 172345Z 00000KT 10SM SCT150 04/00 A3016 =
2017-11-17 17:45 METAR KMTN 172245Z 00000KT 10SM SCT150 06/M02 A3016 =
2017-11-17 16:45 METAR KMTN 172145Z 00000KT 10SM SCT150 09/M02 A3016 =
2017-11-17 15:45 METAR KMTN 172045Z 30007KT 10SM SCT150 10/M02 A3016 =
2017-11-17 14:45 METAR KMTN 171945Z 29009KT 10SM SCT200 11/M02 A3015 =
2017-11-17 13:45 METAR KMTN 171845Z 31005KT 10SM FEW250 11/M01 A3016 =
2017-11-17 12:45 METAR KMTN 171745Z 31012G17KT 10SM FEW250 11/M02 A3018 =
2017-11-17 11:45 METAR KMTN 171645Z 29013KT 10SM FEW250 10/M01 A3020 =
2017-11-17 10:45 METAR KMTN 171545Z 31004G15KT 10SM SKC 09/00 A3022 =
2017-11-17 09:45 METAR KMTN 171445Z 30014KT 10SM SKC 08/01 A3023 =
2017-11-17 08:45 METAR KMTN 171345Z 30010G14KT 10SM SKC 07/01 A3022 =
2017-11-17 07:50 METAR KMTN 171250Z 00000KT 10SM SKC 03/01 A3021 =

Support USWX by starting your Amazon purchase here.